createdAt,value
2018-07-30T00:02:14.682Z,23.10
2018-07-30T00:04:43.028Z,23.12
2018-07-30T00:07:11.347Z,23.13
2018-07-30T00:09:39.688Z,23.09
2018-07-30T00:12:08.097Z,23.04
2018-07-30T00:14:36.440Z,23.01
2018-07-30T00:17:04.744Z,22.97
2018-07-30T00:19:33.081Z,22.91
2018-07-30T00:22:01.455Z,22.86
2018-07-30T00:24:29.778Z,22.83
2018-07-30T00:26:58.109Z,22.80
2018-07-30T00:29:26.553Z,22.78
2018-07-30T00:31:54.905Z,22.77
2018-07-30T00:34:23.307Z,22.78
2018-07-30T00:36:51.651Z,22.77
2018-07-30T00:39:19.976Z,22.80
2018-07-30T00:41:48.306Z,22.84
2018-07-30T00:44:16.670Z,22.90
2018-07-30T00:46:45.047Z,22.94
2018-07-30T00:49:13.434Z,22.96
2018-07-30T00:51:41.820Z,22.90
2018-07-30T00:54:10.213Z,22.84
2018-07-30T00:56:38.573Z,22.77
2018-07-30T00:59:06.912Z,22.74
2018-07-30T01:01:35.231Z,22.70
2018-07-30T01:04:03.672Z,22.64
2018-07-30T01:06:32.034Z,22.62
2018-07-30T01:09:00.408Z,22.66
2018-07-30T01:11:28.791Z,22.68
2018-07-30T01:13:57.185Z,22.67
2018-07-30T01:16:25.601Z,22.62
2018-07-30T01:18:54.249Z,22.58
2018-07-30T01:21:22.876Z,22.51
2018-07-30T01:23:51.194Z,22.45
2018-07-30T01:26:24.802Z,22.38
2018-07-30T01:28:53.155Z,22.34
2018-07-30T01:31:21.462Z,22.34
2018-07-30T01:33:49.963Z,22.36
2018-07-30T01:36:18.362Z,22.36
2018-07-30T01:38:46.700Z,22.35
2018-07-30T01:41:15.077Z,22.34
2018-07-30T01:43:43.408Z,22.32
2018-07-30T01:46:11.799Z,22.27
2018-07-30T01:48:40.128Z,22.27
2018-07-30T01:51:08.497Z,22.28
2018-07-30T01:53:36.864Z,22.29
2018-07-30T01:56:05.352Z,22.30
2018-07-30T01:58:33.724Z,22.30
2018-07-30T02:01:02.109Z,22.31
2018-07-30T02:03:30.488Z,22.25
2018-07-30T02:05:58.835Z,22.22
2018-07-30T02:08:27.216Z,22.22
2018-07-30T02:10:55.581Z,22.23
2018-07-30T02:13:23.979Z,22.23
2018-07-30T02:15:52.396Z,22.22
2018-07-30T02:18:20.769Z,22.14
2018-07-30T02:20:49.127Z,22.07
2018-07-30T02:23:17.462Z,22.01
2018-07-30T02:25:45.799Z,21.96
2018-07-30T02:28:14.176Z,21.92
2018-07-30T02:30:42.559Z,21.90
2018-07-30T02:33:10.971Z,21.87
2018-07-30T02:35:39.323Z,21.83
2018-07-30T02:38:07.704Z,21.80
2018-07-30T02:40:36.213Z,21.77
2018-07-30T02:43:04.597Z,21.75
2018-07-30T02:45:33.002Z,21.71
2018-07-30T02:48:01.343Z,21.68
2018-07-30T02:50:29.694Z,21.66
2018-07-30T02:52:58.036Z,21.65
2018-07-30T02:55:26.374Z,21.61
2018-07-30T02:57:54.754Z,21.56
2018-07-30T03:00:23.053Z,21.50
2018-07-30T03:02:51.352Z,21.49
2018-07-30T03:05:19.940Z,21.49
2018-07-30T03:07:48.286Z,21.45
2018-07-30T03:10:16.757Z,21.41
2018-07-30T03:12:45.241Z,21.39
2018-07-30T03:15:13.627Z,21.36
2018-07-30T03:17:42.033Z,21.31
2018-07-30T03:20:10.550Z,21.25
2018-07-30T03:22:38.909Z,21.21
2018-07-30T03:25:07.707Z,21.18
2018-07-30T03:27:36.081Z,21.14
2018-07-30T03:30:05.720Z,21.09
2018-07-30T03:32:34.042Z,21.04
2018-07-30T03:35:02.391Z,21.03
2018-07-30T03:37:30.748Z,21.02
2018-07-30T03:39:59.113Z,21.01
2018-07-30T03:42:27.443Z,21.03
2018-07-30T03:44:55.828Z,21.08
2018-07-30T03:47:24.160Z,21.15
2018-07-30T03:49:52.516Z,21.18
2018-07-30T03:52:20.926Z,21.21
2018-07-30T03:54:49.366Z,21.25
2018-07-30T03:57:17.673Z,21.26
2018-07-30T03:59:46.015Z,21.28
2018-07-30T04:02:14.392Z,21.29
2018-07-30T04:04:42.718Z,21.28
2018-07-30T04:07:11.025Z,21.27
2018-07-30T04:09:39.379Z,21.29
2018-07-30T04:12:07.771Z,21.28
2018-07-30T04:14:36.117Z,21.28
2018-07-30T04:17:04.468Z,21.26
2018-07-30T04:19:32.826Z,21.23
2018-07-30T04:22:01.136Z,21.25
2018-07-30T04:24:29.510Z,21.21
2018-07-30T04:26:57.864Z,21.20
2018-07-30T04:29:26.195Z,21.22
2018-07-30T04:31:54.580Z,21.29
2018-07-30T04:34:22.981Z,21.36
2018-07-30T04:36:51.395Z,21.53
2018-07-30T04:39:19.745Z,21.63
2018-07-30T04:41:48.050Z,21.59
2018-07-30T04:44:16.387Z,21.50
2018-07-30T04:46:44.746Z,21.45
2018-07-30T04:49:13.061Z,21.43
2018-07-30T04:51:41.416Z,21.75
2018-07-30T04:54:09.767Z,22.73
2018-07-30T04:56:38.080Z,23.93
2018-07-30T04:59:06.391Z,24.80
2018-07-30T05:01:34.719Z,25.07
2018-07-30T05:04:03.100Z,25.46
2018-07-30T05:06:31.458Z,25.43
2018-07-30T05:08:59.818Z,25.02
2018-07-30T05:11:28.258Z,24.50
2018-07-30T05:13:56.643Z,24.03
2018-07-30T05:16:24.975Z,23.64
2018-07-30T05:18:53.909Z,23.42
2018-07-30T05:21:22.259Z,23.87
2018-07-30T05:23:50.619Z,25.03
2018-07-30T05:26:18.935Z,26.42
2018-07-30T05:28:47.340Z,27.54
2018-07-30T05:31:15.720Z,28.50
2018-07-30T05:33:44.092Z,29.07
2018-07-30T05:36:12.415Z,29.39
2018-07-30T05:38:40.732Z,29.44
2018-07-30T05:41:09.248Z,29.65
2018-07-30T05:43:37.571Z,29.87
2018-07-30T05:46:05.951Z,29.74
2018-07-30T05:48:34.286Z,30.02
2018-07-30T05:51:02.603Z,30.30
2018-07-30T05:53:30.930Z,30.35
2018-07-30T05:55:59.325Z,30.24
2018-07-30T05:58:27.643Z,29.99
2018-07-30T06:00:55.989Z,29.38
2018-07-30T06:03:24.317Z,28.90
2018-07-30T06:05:52.697Z,28.57
2018-07-30T06:08:21.057Z,28.36
2018-07-30T06:10:49.364Z,28.20
2018-07-30T06:13:17.701Z,28.03
2018-07-30T06:15:46.062Z,27.98
2018-07-30T06:18:14.388Z,27.95
2018-07-30T06:20:42.739Z,27.89
2018-07-30T06:23:11.101Z,27.86
2018-07-30T06:25:39.452Z,27.81
2018-07-30T06:28:07.764Z,27.67
2018-07-30T06:30:36.138Z,27.56
2018-07-30T06:33:04.456Z,27.49
2018-07-30T06:35:32.852Z,27.39
2018-07-30T06:38:01.215Z,27.29
2018-07-30T06:40:29.602Z,27.23
2018-07-30T06:42:57.918Z,27.20
2018-07-30T06:45:26.264Z,27.22
2018-07-30T06:47:54.653Z,27.16
2018-07-30T06:50:22.991Z,27.12
2018-07-30T06:52:51.322Z,27.12
2018-07-30T06:55:19.659Z,27.05
2018-07-30T06:57:48.000Z,26.90
2018-07-30T07:00:16.392Z,26.83
2018-07-30T07:02:44.751Z,26.85
2018-07-30T07:05:13.063Z,26.99
2018-07-30T07:07:41.387Z,27.03
2018-07-30T07:10:11.383Z,27.00
2018-07-30T07:12:39.888Z,26.96
2018-07-30T07:15:10.802Z,26.92
2018-07-30T07:17:39.202Z,26.96
2018-07-30T07:20:08.052Z,26.99
2018-07-30T07:22:36.764Z,27.02
2018-07-30T07:25:05.850Z,26.99
2018-07-30T07:27:34.173Z,27.03
2018-07-30T07:30:02.530Z,27.11
2018-07-30T07:32:30.864Z,27.12
2018-07-30T07:34:59.249Z,27.07
2018-07-30T07:37:27.623Z,26.95
2018-07-30T07:39:55.972Z,26.83
2018-07-30T07:42:24.304Z,26.78
2018-07-30T07:44:52.820Z,26.81
2018-07-30T07:47:21.125Z,26.87
2018-07-30T07:49:50.069Z,27.04
2018-07-30T07:52:18.499Z,27.29
2018-07-30T07:54:46.897Z,27.51
2018-07-30T07:57:15.221Z,27.69
2018-07-30T07:59:43.619Z,27.82
2018-07-30T08:02:12.358Z,28.01
2018-07-30T08:04:40.694Z,28.19
2018-07-30T08:07:09.046Z,28.41
2018-07-30T08:09:41.201Z,28.56
2018-07-30T08:12:09.493Z,28.59
2018-07-30T08:14:37.834Z,28.67
2018-07-30T08:17:06.184Z,28.72
2018-07-30T08:19:34.614Z,28.75
2018-07-30T08:22:02.977Z,28.89
2018-07-30T08:24:31.350Z,28.84
2018-07-30T08:26:59.702Z,28.78
2018-07-30T08:29:28.063Z,28.71
2018-07-30T08:31:56.408Z,28.83
2018-07-30T08:34:24.744Z,28.98
2018-07-30T08:36:53.061Z,29.13
2018-07-30T08:39:21.421Z,29.24
2018-07-30T08:41:49.824Z,29.32
2018-07-30T08:44:18.211Z,29.40
2018-07-30T08:46:46.585Z,29.42
2018-07-30T08:49:14.927Z,29.41
2018-07-30T08:51:43.257Z,29.40
2018-07-30T08:54:11.780Z,29.33
2018-07-30T08:56:40.123Z,29.30
2018-07-30T08:59:08.522Z,29.23
2018-07-30T09:01:36.888Z,29.17
2018-07-30T09:04:05.441Z,29.15
2018-07-30T09:06:33.804Z,29.13
2018-07-30T09:09:02.165Z,29.14
2018-07-30T09:11:30.661Z,29.18
2018-07-30T09:13:59.028Z,29.17
2018-07-30T09:16:27.364Z,29.06
2018-07-30T09:18:55.751Z,29.03
2018-07-30T09:21:24.090Z,29.05
2018-07-30T09:23:52.460Z,28.98
2018-07-30T09:26:20.811Z,28.85
2018-07-30T09:28:49.258Z,28.91
2018-07-30T09:31:18.513Z,28.84
2018-07-30T09:33:46.828Z,28.89
2018-07-30T09:36:51.523Z,28.91
2018-07-30T09:39:19.959Z,28.91
2018-07-30T09:41:48.261Z,28.85
2018-07-30T09:44:16.687Z,28.69
2018-07-30T09:46:45.064Z,28.68
2018-07-30T09:49:13.451Z,28.78
2018-07-30T09:51:41.811Z,28.87
2018-07-30T09:54:10.125Z,28.98
2018-07-30T09:56:38.468Z,28.98
2018-07-30T09:59:06.875Z,29.01
2018-07-30T10:01:35.225Z,29.09
2018-07-30T10:04:03.693Z,29.21
2018-07-30T10:06:32.094Z,29.37
2018-07-30T10:09:00.459Z,29.51
2018-07-30T10:11:28.861Z,29.53
2018-07-30T10:13:57.169Z,29.50
2018-07-30T10:16:25.493Z,29.39
2018-07-30T10:19:00.433Z,29.34
2018-07-30T10:21:28.791Z,29.46
2018-07-30T10:23:57.192Z,29.63
2018-07-30T10:26:25.527Z,29.71
2018-07-30T10:28:53.876Z,29.79
2018-07-30T10:31:22.227Z,29.89
2018-07-30T10:33:50.567Z,30.04
2018-07-30T10:36:18.928Z,30.08
2018-07-30T10:38:47.256Z,30.09
2018-07-30T10:41:15.598Z,30.15
2018-07-30T10:43:43.942Z,30.20
2018-07-30T10:46:12.336Z,30.25
2018-07-30T10:48:40.691Z,30.31
2018-07-30T10:51:09.047Z,30.37
2018-07-30T10:53:37.406Z,30.32
2018-07-30T10:56:05.827Z,30.28
2018-07-30T10:58:34.174Z,30.34
2018-07-30T11:01:02.695Z,30.45
2018-07-30T11:03:31.033Z,30.56
2018-07-30T11:05:59.543Z,30.66
2018-07-30T11:08:27.888Z,30.70
2018-07-30T11:10:56.200Z,30.68
2018-07-30T11:13:24.539Z,30.66
2018-07-30T11:15:52.912Z,30.54
2018-07-30T11:18:21.359Z,30.49
2018-07-30T11:20:49.707Z,30.45
2018-07-30T11:23:18.088Z,30.42
2018-07-30T11:25:46.369Z,30.54
2018-07-30T11:28:14.715Z,30.77
2018-07-30T11:30:43.049Z,30.97
2018-07-30T11:33:11.354Z,31.04
2018-07-30T11:35:39.685Z,31.09
2018-07-30T11:38:08.060Z,31.13
2018-07-30T11:40:36.417Z,31.15
2018-07-30T11:43:04.857Z,31.18
2018-07-30T11:45:33.348Z,31.16
2018-07-30T11:48:01.718Z,31.12
2018-07-30T11:50:30.016Z,31.04
2018-07-30T11:52:58.327Z,30.96
2018-07-30T11:55:27.238Z,30.96
2018-07-30T11:57:55.571Z,30.96
2018-07-30T12:00:23.915Z,30.97
2018-07-30T12:02:52.274Z,31.00
2018-07-30T12:05:20.597Z,30.95
2018-07-30T12:07:48.956Z,30.84
2018-07-30T12:10:17.356Z,30.83
2018-07-30T12:12:45.734Z,30.88
2018-07-30T12:15:14.103Z,30.90
2018-07-30T12:17:42.732Z,30.91
2018-07-30T12:20:11.100Z,30.95
2018-07-30T12:22:39.415Z,30.97
2018-07-30T12:25:07.737Z,31.00
2018-07-30T12:27:36.065Z,31.03
2018-07-30T12:30:04.755Z,31.08
2018-07-30T12:32:33.045Z,31.07
2018-07-30T12:35:01.380Z,30.95
2018-07-30T12:37:29.711Z,30.84
2018-07-30T12:39:58.081Z,30.74
2018-07-30T12:42:26.572Z,30.79
2018-07-30T12:44:54.962Z,30.99
2018-07-30T12:47:23.303Z,31.14
2018-07-30T12:49:51.617Z,31.27
2018-07-30T12:52:20.000Z,31.34
2018-07-30T12:54:48.417Z,31.42
2018-07-30T12:57:16.744Z,31.49
2018-07-30T12:59:45.086Z,31.60
2018-07-30T13:02:13.436Z,31.80
2018-07-30T13:04:41.748Z,31.99
2018-07-30T13:07:10.050Z,32.10
2018-07-30T13:09:38.378Z,32.16
2018-07-30T13:12:06.722Z,32.20
2018-07-30T13:14:35.093Z,32.17
2018-07-30T13:17:03.412Z,32.10
2018-07-30T13:19:31.755Z,32.02
2018-07-30T13:22:00.151Z,31.94
2018-07-30T13:24:28.500Z,31.88
2018-07-30T13:26:56.863Z,31.89
2018-07-30T13:29:25.210Z,31.75
2018-07-30T13:31:53.573Z,31.78
2018-07-30T13:34:21.913Z,31.88
2018-07-30T13:36:50.225Z,31.94
2018-07-30T13:39:18.509Z,31.88
2018-07-30T13:41:46.860Z,31.84
2018-07-30T13:44:15.203Z,31.83
2018-07-30T13:46:43.564Z,31.78
2018-07-30T13:49:11.927Z,31.78
2018-07-30T13:51:40.222Z,31.78
2018-07-30T13:54:08.576Z,31.85
2018-07-30T13:56:36.926Z,31.94
2018-07-30T13:59:05.639Z,31.96
2018-07-30T14:01:33.963Z,31.95
2018-07-30T14:04:02.339Z,31.94
2018-07-30T14:06:30.862Z,31.90
2018-07-30T14:08:59.101Z,31.99
2018-07-30T14:11:27.497Z,32.14
2018-07-30T14:13:55.902Z,32.32
2018-07-30T14:16:24.344Z,32.36
2018-07-30T14:18:52.768Z,32.29
2018-07-30T14:21:21.212Z,32.20
2018-07-30T14:23:49.527Z,32.16
2018-07-30T14:26:17.884Z,32.09
2018-07-30T14:28:46.402Z,32.03
2018-07-30T14:31:14.731Z,31.99
2018-07-30T14:33:43.102Z,32.02
2018-07-30T14:36:11.447Z,31.97
2018-07-30T14:38:39.755Z,31.95
2018-07-30T14:41:08.072Z,31.99
2018-07-30T14:43:36.393Z,31.98
2018-07-30T14:46:04.988Z,31.96
2018-07-30T14:48:33.294Z,31.92
2018-07-30T14:51:01.618Z,31.91
2018-07-30T14:53:29.983Z,31.96
2018-07-30T14:55:58.336Z,32.05
2018-07-30T14:58:26.866Z,32.15
2018-07-30T15:00:55.209Z,32.20
2018-07-30T15:03:23.584Z,32.24
2018-07-30T15:05:51.881Z,32.26
2018-07-30T15:08:20.255Z,32.36
2018-07-30T15:10:48.591Z,32.44
2018-07-30T15:13:16.961Z,32.62
2018-07-30T15:15:45.373Z,32.81
2018-07-30T15:18:13.731Z,32.98
2018-07-30T15:20:42.089Z,33.07
2018-07-30T15:23:10.423Z,33.13
2018-07-30T15:25:38.785Z,33.10
2018-07-30T15:28:07.117Z,33.06
2018-07-30T15:30:35.505Z,33.01
2018-07-30T15:33:04.241Z,32.88
2018-07-30T15:35:32.616Z,32.75
2018-07-30T15:38:00.973Z,32.67
2018-07-30T15:40:29.463Z,32.60
2018-07-30T15:42:57.824Z,32.48
2018-07-30T15:45:26.130Z,32.35
2018-07-30T15:47:54.453Z,32.21
2018-07-30T15:50:22.792Z,32.17
2018-07-30T15:52:51.282Z,32.16
2018-07-30T15:55:19.623Z,32.18
2018-07-30T15:57:47.957Z,32.18
2018-07-30T16:00:16.313Z,32.17
2018-07-30T16:02:44.649Z,32.15
2018-07-30T16:05:15.971Z,32.20
2018-07-30T16:07:45.038Z,32.25
2018-07-30T16:10:13.450Z,32.28
2018-07-30T16:12:41.761Z,32.24
2018-07-30T16:15:10.889Z,32.16
2018-07-30T16:17:39.452Z,32.04
2018-07-30T16:20:08.687Z,31.91
2018-07-30T16:22:37.112Z,31.83
2018-07-30T16:25:05.826Z,31.81
2018-07-30T16:27:34.142Z,31.84
2018-07-30T16:30:02.478Z,31.89
2018-07-30T16:32:30.828Z,31.95
2018-07-30T16:34:59.238Z,32.02
2018-07-30T16:37:27.582Z,32.07
2018-07-30T16:39:55.881Z,32.10
2018-07-30T16:42:24.237Z,32.08
2018-07-30T16:44:52.610Z,32.07
2018-07-30T16:47:20.975Z,32.01
2018-07-30T16:49:49.328Z,31.98
2018-07-30T16:52:17.773Z,31.92
2018-07-30T16:54:46.121Z,31.86
2018-07-30T16:57:14.529Z,31.79
2018-07-30T16:59:42.856Z,31.73
2018-07-30T17:02:11.278Z,31.67
2018-07-30T17:04:39.677Z,31.64
2018-07-30T17:07:07.993Z,31.64
2018-07-30T17:09:36.352Z,31.63
2018-07-30T17:12:04.761Z,31.63
2018-07-30T17:14:33.076Z,31.64
2018-07-30T17:17:01.449Z,31.66
2018-07-30T17:19:29.974Z,31.66
2018-07-30T17:21:58.276Z,31.65
2018-07-30T17:24:26.597Z,31.60
2018-07-30T17:26:54.932Z,31.56
2018-07-30T17:29:23.331Z,31.56
2018-07-30T17:31:51.656Z,31.53
2018-07-30T17:34:20.015Z,31.45
2018-07-30T17:36:48.376Z,31.39
2018-07-30T17:39:16.728Z,31.36
2018-07-30T17:41:45.069Z,31.28
2018-07-30T17:44:13.419Z,31.21
2018-07-30T17:46:41.839Z,31.12
2018-07-30T17:49:10.137Z,31.01
2018-07-30T17:51:38.476Z,30.95
2018-07-30T17:54:06.821Z,30.90
2018-07-30T17:56:35.210Z,30.83
2018-07-30T17:59:03.558Z,30.74
2018-07-30T18:01:31.904Z,30.65
2018-07-30T18:04:00.224Z,30.57
2018-07-30T18:06:28.597Z,30.52
2018-07-30T18:08:56.930Z,30.46
2018-07-30T18:11:25.290Z,30.37
2018-07-30T18:13:53.619Z,30.29
2018-07-30T18:16:22.029Z,30.24
2018-07-30T18:18:50.373Z,30.22
2018-07-30T18:21:18.784Z,30.19
2018-07-30T18:23:47.216Z,30.12
2018-07-30T18:26:15.550Z,30.06
2018-07-30T18:28:43.871Z,30.01
2018-07-30T18:31:12.195Z,29.97
2018-07-30T18:33:40.595Z,29.95
2018-07-30T18:36:08.922Z,29.90
2018-07-30T18:38:37.266Z,29.82
2018-07-30T18:41:05.654Z,29.77
2018-07-30T18:43:33.973Z,29.71
2018-07-30T18:46:02.369Z,29.67
2018-07-30T18:48:30.744Z,29.57
2018-07-30T18:50:59.131Z,29.49
2018-07-30T18:53:27.509Z,29.44
2018-07-30T18:55:55.845Z,29.36
2018-07-30T18:58:24.229Z,29.29
2018-07-30T19:00:52.590Z,29.23
2018-07-30T19:03:20.956Z,29.17
2018-07-30T19:05:49.332Z,29.13
2018-07-30T19:08:17.724Z,29.06
2018-07-30T19:10:46.085Z,28.99
2018-07-30T19:13:14.473Z,28.93
2018-07-30T19:15:42.850Z,28.88
2018-07-30T19:18:11.203Z,28.81
2018-07-30T19:20:39.538Z,28.74
2018-07-30T19:23:07.934Z,28.69
2018-07-30T19:25:36.250Z,28.64
2018-07-30T19:28:04.577Z,28.57
2018-07-30T19:30:32.967Z,28.50
2018-07-30T19:33:01.368Z,28.43
2018-07-30T19:35:30.097Z,28.37
2018-07-30T19:37:58.429Z,28.36
2018-07-30T19:40:26.800Z,28.33
2018-07-30T19:42:55.206Z,28.31
2018-07-30T19:45:23.543Z,28.27
2018-07-30T19:47:51.903Z,28.19
2018-07-30T19:50:20.256Z,28.11
2018-07-30T19:52:48.583Z,28.06
2018-07-30T19:55:16.928Z,28.04
2018-07-30T19:57:45.361Z,28.02
2018-07-30T20:00:13.573Z,27.96
2018-07-30T20:02:41.911Z,27.92
2018-07-30T20:05:10.319Z,27.88
2018-07-30T20:07:38.624Z,27.83
2018-07-30T20:10:07.045Z,27.76
2018-07-30T20:12:35.434Z,27.67
2018-07-30T20:15:03.877Z,27.58
2018-07-30T20:17:32.232Z,27.50
2018-07-30T20:20:00.569Z,27.44
2018-07-30T20:22:28.925Z,27.38
2018-07-30T20:24:57.364Z,27.28
2018-07-30T20:27:25.717Z,27.19
2018-07-30T20:29:54.161Z,27.13
2018-07-30T20:32:22.547Z,27.13
2018-07-30T20:34:50.920Z,27.17
2018-07-30T20:37:19.247Z,27.20
2018-07-30T20:39:47.699Z,27.17
2018-07-30T20:42:16.077Z,27.08
2018-07-30T20:44:44.427Z,26.98
2018-07-30T20:47:12.789Z,26.91
2018-07-30T20:49:41.157Z,26.84
2018-07-30T20:52:09.511Z,26.77
2018-07-30T20:54:37.900Z,26.66
2018-07-30T20:57:06.266Z,26.58
2018-07-30T20:59:34.974Z,26.49
2018-07-30T21:02:03.375Z,26.44
2018-07-30T21:04:31.754Z,26.41
2018-07-30T21:07:00.139Z,26.33
2018-07-30T21:09:28.486Z,26.29
2018-07-30T21:11:56.839Z,26.26
2018-07-30T21:14:25.192Z,26.22
2018-07-30T21:16:53.517Z,26.17
2018-07-30T21:19:21.894Z,26.15
2018-07-30T21:21:50.326Z,26.12
2018-07-30T21:24:18.682Z,26.07
2018-07-30T21:26:47.005Z,26.05
2018-07-30T21:29:15.500Z,26.00
2018-07-30T21:31:44.362Z,25.96
2018-07-30T21:34:12.885Z,25.95
2018-07-30T21:36:41.430Z,25.96
2018-07-30T21:39:13.870Z,25.96
2018-07-30T21:41:42.412Z,25.96
2018-07-30T21:44:11.718Z,25.96
2018-07-30T21:46:41.423Z,25.96
2018-07-30T21:49:09.793Z,25.91
2018-07-30T21:51:38.110Z,25.83
2018-07-30T21:54:06.664Z,25.72
2018-07-30T21:56:34.904Z,25.67
2018-07-30T21:59:03.509Z,25.62
2018-07-30T22:01:31.975Z,25.57
2018-07-30T22:04:00.320Z,25.51
2018-07-30T22:06:28.691Z,25.46
2018-07-30T22:08:57.017Z,25.41
2018-07-30T22:11:25.428Z,25.40
2018-07-30T22:13:53.784Z,25.36
2018-07-30T22:16:22.332Z,25.33
2018-07-30T22:18:50.637Z,25.33
2018-07-30T22:21:18.990Z,25.32
2018-07-30T22:23:47.353Z,25.30
2018-07-30T22:26:15.784Z,25.28
2018-07-30T22:28:44.104Z,25.25
2018-07-30T22:31:12.597Z,25.22
2018-07-30T22:33:40.980Z,25.18
2018-07-30T22:36:09.456Z,25.15
2018-07-30T22:38:37.758Z,25.13
2018-07-30T22:41:06.308Z,25.12
2018-07-30T22:43:34.620Z,25.11
2018-07-30T22:46:02.970Z,25.12
2018-07-30T22:48:31.313Z,25.08
2018-07-30T22:50:59.667Z,25.03
2018-07-30T22:53:28.116Z,24.97
2018-07-30T22:55:56.473Z,24.96
2018-07-30T22:58:24.785Z,24.91
2018-07-30T23:00:53.108Z,24.87
2018-07-30T23:03:21.742Z,24.83
2018-07-30T23:05:50.102Z,24.82
2018-07-30T23:08:18.469Z,24.80
2018-07-30T23:10:46.986Z,24.80
2018-07-30T23:13:15.305Z,24.78
2018-07-30T23:15:43.653Z,24.73
2018-07-30T23:18:12.040Z,24.71
2018-07-30T23:20:40.489Z,24.69
2018-07-30T23:23:08.881Z,24.67
2018-07-30T23:25:37.332Z,24.69
2018-07-30T23:28:05.737Z,24.73
2018-07-30T23:30:34.081Z,24.74
2018-07-30T23:33:02.477Z,24.71
2018-07-30T23:35:30.797Z,24.63
2018-07-30T23:37:59.151Z,24.56
2018-07-30T23:40:27.525Z,24.52
2018-07-30T23:42:55.828Z,24.47
2018-07-30T23:45:24.383Z,24.46
2018-07-30T23:47:52.828Z,24.44
2018-07-30T23:50:21.212Z,24.43
2018-07-30T23:52:49.553Z,24.43
2018-07-30T23:55:17.920Z,24.41
2018-07-30T23:57:46.265Z,24.39
